createdAt,value
2018-05-04T00:01:58.966Z,18.60
2018-05-04T00:04:27.174Z,18.70
2018-05-04T00:06:55.359Z,18.60
2018-05-04T00:09:23.578Z,18.50
2018-05-04T00:11:52.509Z,18.50
2018-05-04T00:14:20.692Z,18.50
2018-05-04T00:16:48.875Z,18.50
2018-05-04T00:19:17.093Z,18.50
2018-05-04T00:21:46.038Z,18.40
2018-05-04T00:24:14.214Z,18.30
2018-05-04T00:26:42.416Z,18.30
2018-05-04T00:29:10.621Z,18.40
2018-05-04T00:31:38.809Z,18.40
2018-05-04T00:34:06.998Z,18.30
2018-05-04T00:36:35.185Z,18.30
2018-05-04T00:39:03.368Z,18.30
2018-05-04T00:41:31.561Z,18.30
2018-05-04T00:43:59.745Z,18.20
2018-05-04T00:46:27.924Z,18.20
2018-05-04T00:48:56.869Z,18.20
2018-05-04T00:51:25.058Z,18.20
2018-05-04T00:54:11.152Z,18.20
2018-05-04T00:56:39.326Z,18.20
2018-05-04T00:59:07.493Z,18.10
2018-05-04T01:01:35.679Z,18.10
2018-05-04T01:04:03.847Z,18.00
2018-05-04T01:06:32.014Z,18.00
2018-05-04T01:09:00.242Z,18.00
2018-05-04T01:11:29.183Z,17.90
2018-05-04T01:13:57.370Z,17.90
2018-05-04T01:16:25.543Z,17.90
2018-05-04T01:18:53.727Z,17.90
2018-05-04T01:21:21.912Z,18.00
2018-05-04T01:23:50.858Z,18.00
2018-05-04T01:26:19.021Z,17.90
2018-05-04T01:28:47.226Z,18.00
2018-05-04T01:31:15.404Z,17.90
2018-05-04T01:33:43.596Z,17.90
2018-05-04T01:36:11.787Z,17.90
2018-05-04T01:38:40.756Z,17.70
2018-05-04T01:41:08.934Z,17.70
2018-05-04T01:43:37.914Z,17.80
2018-05-04T01:46:06.087Z,17.70
2018-05-04T01:48:34.263Z,17.70
2018-05-04T01:51:02.458Z,17.80
2018-05-04T01:53:30.653Z,17.70
2018-05-04T01:55:59.616Z,17.70
2018-05-04T01:58:27.794Z,17.70
2018-05-04T02:00:55.968Z,17.70
2018-05-04T02:03:24.151Z,17.80
2018-05-04T02:05:52.337Z,17.80
2018-05-04T02:08:20.514Z,17.90
2018-05-04T02:10:48.685Z,17.80
2018-05-04T02:13:16.876Z,17.90
2018-05-04T02:15:45.814Z,17.90
2018-05-04T02:18:13.991Z,17.80
2018-05-04T02:20:42.165Z,17.90
2018-05-04T02:23:10.340Z,17.90
2018-05-04T02:25:38.522Z,17.90
2018-05-04T02:28:06.761Z,17.90
2018-05-04T02:30:34.894Z,17.90
2018-05-04T02:33:03.074Z,17.80
2018-05-04T02:35:31.258Z,17.90
2018-05-04T02:38:00.233Z,17.90
2018-05-04T02:40:28.433Z,17.90
2018-05-04T02:42:57.387Z,17.90
2018-05-04T02:45:25.571Z,17.90
2018-05-04T02:47:53.750Z,17.90
2018-05-04T02:50:21.972Z,17.90
2018-05-04T02:52:50.227Z,17.90
2018-05-04T02:55:19.284Z,17.90
2018-05-04T02:57:48.165Z,17.90
2018-05-04T03:00:16.375Z,17.90
2018-05-04T03:02:44.581Z,17.80
2018-05-04T03:05:12.753Z,17.90
2018-05-04T03:07:40.950Z,17.80
2018-05-04T03:10:09.131Z,17.80
2018-05-04T03:12:37.309Z,17.90
2018-05-04T03:15:05.491Z,17.80
2018-05-04T03:17:34.589Z,17.80
2018-05-04T03:20:02.765Z,17.80
2018-05-04T03:22:30.954Z,17.90
2018-05-04T03:24:59.154Z,17.90
2018-05-04T03:27:28.132Z,17.90
2018-05-04T03:29:56.311Z,17.80
2018-05-04T03:32:24.508Z,17.90
2018-05-04T03:34:53.448Z,17.90
2018-05-04T03:37:21.625Z,17.90
2018-05-04T03:39:49.796Z,17.90
2018-05-04T03:42:17.977Z,17.90
2018-05-04T03:44:46.151Z,17.90
2018-05-04T03:47:14.343Z,17.90
2018-05-04T03:49:42.552Z,17.90
2018-05-04T03:52:10.727Z,17.90
2018-05-04T03:54:38.903Z,17.90
2018-05-04T03:57:24.799Z,17.90
2018-05-04T04:00:11.026Z,17.90
2018-05-04T04:05:47.459Z,17.90
2018-05-04T04:08:16.406Z,17.90
2018-05-04T04:10:44.582Z,17.90
2018-05-04T04:13:12.765Z,18.00
2018-05-04T04:15:40.942Z,18.00
2018-05-04T04:18:09.154Z,18.00
2018-05-04T04:20:38.104Z,18.10
2018-05-04T04:23:06.284Z,18.00
2018-05-04T04:25:34.475Z,18.10
2018-05-04T04:28:02.650Z,18.10
2018-05-04T04:30:30.829Z,18.10
2018-05-04T04:32:59.004Z,18.10
2018-05-04T04:35:27.181Z,18.10
2018-05-04T04:37:55.360Z,18.10
2018-05-04T04:40:24.353Z,18.10
2018-05-04T04:42:52.539Z,18.00
2018-05-04T04:45:21.486Z,18.10
2018-05-04T04:47:49.732Z,18.10
2018-05-04T04:50:17.904Z,18.10
2018-05-04T04:52:46.375Z,18.00
2018-05-04T04:55:15.282Z,18.00
2018-05-04T04:57:43.449Z,17.90
2018-05-04T05:00:11.617Z,18.00
2018-05-04T05:02:40.555Z,18.00
2018-05-04T05:05:08.748Z,18.00
2018-05-04T05:07:36.939Z,18.00
2018-05-04T05:10:05.877Z,18.10
2018-05-04T05:12:34.065Z,18.00
2018-05-04T05:15:02.256Z,18.10
2018-05-04T05:17:30.434Z,18.10
2018-05-04T05:19:58.661Z,18.20
2018-05-04T05:22:26.837Z,18.20
2018-05-04T05:24:55.026Z,18.20
2018-05-04T05:27:23.238Z,18.30
2018-05-04T05:29:51.443Z,18.20
2018-05-04T05:32:20.421Z,18.30
2018-05-04T05:34:48.609Z,18.20
2018-05-04T05:37:17.560Z,18.40
2018-05-04T05:39:45.748Z,18.40
2018-05-04T05:42:13.936Z,18.50
2018-05-04T05:44:42.118Z,18.50
2018-05-04T05:47:11.066Z,18.50
2018-05-04T05:49:39.237Z,18.50
2018-05-04T05:52:07.458Z,18.60
2018-05-04T05:54:36.496Z,18.60
2018-05-04T05:57:04.614Z,18.50
2018-05-04T05:59:32.815Z,18.60
2018-05-04T06:02:01.763Z,18.50
2018-05-04T06:04:29.989Z,18.40
2018-05-04T06:06:58.938Z,18.40
2018-05-04T06:09:27.286Z,18.40
2018-05-04T06:11:55.333Z,18.30
2018-05-04T06:14:23.511Z,18.30
2018-05-04T06:16:51.705Z,18.30
2018-05-04T06:19:19.910Z,18.30
2018-05-04T06:21:48.085Z,18.30
2018-05-04T06:24:16.272Z,18.40
2018-05-04T06:26:44.464Z,18.40
2018-05-04T06:29:13.447Z,18.40
2018-05-04T06:31:41.622Z,18.30
2018-05-04T06:34:09.799Z,18.40
2018-05-04T06:36:38.001Z,18.40
2018-05-04T06:39:07.042Z,18.40
2018-05-04T06:41:35.212Z,18.40
2018-05-04T06:44:03.386Z,18.40
2018-05-04T06:46:31.879Z,18.50
2018-05-04T06:49:00.061Z,18.50
2018-05-04T06:51:28.240Z,18.50
2018-05-04T06:53:56.417Z,18.50
2018-05-04T06:56:24.597Z,18.50
2018-05-04T06:58:53.552Z,18.50
2018-05-04T07:01:21.737Z,18.50
2018-05-04T07:03:49.915Z,18.50
2018-05-04T07:06:18.109Z,18.50
2018-05-04T07:08:46.293Z,18.50
2018-05-04T07:11:15.241Z,18.60
2018-05-04T07:13:43.422Z,18.50
2018-05-04T07:16:11.598Z,18.50
2018-05-04T07:18:39.795Z,18.50
2018-05-04T07:21:07.985Z,18.50
2018-05-04T07:23:36.922Z,18.50
2018-05-04T07:26:05.101Z,18.50
2018-05-04T07:28:33.276Z,18.60
2018-05-04T07:31:01.553Z,18.60
2018-05-04T07:33:32.900Z,18.60
2018-05-04T07:36:01.824Z,18.70
2018-05-04T07:38:30.490Z,18.70
2018-05-04T07:41:01.482Z,18.70
2018-05-04T07:43:30.826Z,18.70
2018-05-04T07:46:00.636Z,18.60
2018-05-04T07:48:30.138Z,18.70
2018-05-04T07:50:59.923Z,18.70
2018-05-04T07:53:28.376Z,18.60
2018-05-04T07:56:01.740Z,18.70
2018-05-04T07:58:30.312Z,18.70
2018-05-04T08:01:02.666Z,18.70
2018-05-04T08:03:30.839Z,18.70
2018-05-04T08:05:59.224Z,18.70
2018-05-04T08:08:27.600Z,18.70
2018-05-04T08:10:59.217Z,18.80
2018-05-04T08:13:27.400Z,18.80
2018-05-04T08:16:02.304Z,18.80
2018-05-04T08:18:30.485Z,18.80
2018-05-04T08:21:00.463Z,18.80
2018-05-04T08:23:28.651Z,18.80
2018-05-04T08:26:01.305Z,18.80
2018-05-04T08:28:29.495Z,18.90
2018-05-04T08:31:01.422Z,18.80
2018-05-04T08:33:30.396Z,18.90
2018-05-04T08:36:03.629Z,18.90
2018-05-04T08:38:32.079Z,19.00
2018-05-04T08:41:00.662Z,19.00
2018-05-04T08:43:32.467Z,19.00
2018-05-04T08:46:04.965Z,19.00
2018-05-04T08:48:36.714Z,19.20
2018-05-04T08:51:05.246Z,19.30
2018-05-04T08:53:37.820Z,19.30
2018-05-04T08:56:06.826Z,19.40
2018-05-04T08:58:40.233Z,19.50
2018-05-04T09:01:08.427Z,19.40
2018-05-04T09:03:38.952Z,19.50
2018-05-04T09:06:07.136Z,19.50
2018-05-04T09:08:40.541Z,19.60
2018-05-04T09:11:09.427Z,19.80
2018-05-04T09:13:40.333Z,19.90
2018-05-04T09:16:08.517Z,20.00
2018-05-04T09:18:42.240Z,20.00
2018-05-04T09:21:10.669Z,19.90
2018-05-04T09:23:39.934Z,19.80
2018-05-04T09:26:10.977Z,19.80
2018-05-04T09:28:42.797Z,19.80
2018-05-04T09:31:14.402Z,19.70
2018-05-04T09:33:42.973Z,19.60
2018-05-04T09:36:13.922Z,19.50
2018-05-04T09:38:42.390Z,19.50
2018-05-04T09:41:12.504Z,19.50
2018-05-04T09:43:41.784Z,19.60
2018-05-04T09:46:10.193Z,19.60
2018-05-04T09:48:39.417Z,19.90
2018-05-04T09:51:10.974Z,19.90
2018-05-04T09:53:42.990Z,20.20
2018-05-04T09:56:12.745Z,20.40
2018-05-04T09:58:40.943Z,20.70
2018-05-04T10:01:09.903Z,20.60
2018-05-04T10:03:38.145Z,20.60
2018-05-04T10:06:06.338Z,20.60
2018-05-04T10:08:34.586Z,20.50
2018-05-04T10:11:06.947Z,20.40
2018-05-04T10:13:35.909Z,20.10
2018-05-04T10:16:04.431Z,20.00
2018-05-04T10:18:32.577Z,19.90
2018-05-04T10:21:01.532Z,19.90
2018-05-04T10:23:29.710Z,19.80
2018-05-04T10:25:57.893Z,19.90
2018-05-04T10:28:30.396Z,20.20
2018-05-04T10:30:59.350Z,20.50
2018-05-04T10:33:30.765Z,20.40
2018-05-04T10:35:58.947Z,20.70
2018-05-04T10:38:27.341Z,21.00
2018-05-04T10:40:55.525Z,21.30
2018-05-04T10:43:26.151Z,21.40
2018-05-04T10:45:54.542Z,21.60
2018-05-04T10:48:22.762Z,22.20
2018-05-04T10:50:51.719Z,23.70
2018-05-04T10:53:20.119Z,23.70
2018-05-04T10:55:48.298Z,24.00
2018-05-04T10:58:17.269Z,23.40
2018-05-04T11:00:45.442Z,23.40
2018-05-04T11:03:13.631Z,23.30
2018-05-04T11:05:41.812Z,23.40
2018-05-04T11:08:09.986Z,23.60
2018-05-04T11:10:38.163Z,23.70
2018-05-04T11:13:06.340Z,23.70
2018-05-04T11:15:34.531Z,24.00
2018-05-04T11:18:03.481Z,25.60
2018-05-04T11:20:31.662Z,25.50
2018-05-04T11:22:59.857Z,26.30
2018-05-04T11:25:28.855Z,28.10
2018-05-04T11:27:57.810Z,28.70
2018-05-04T11:30:25.994Z,28.60
2018-05-04T11:32:54.181Z,29.30
2018-05-04T11:35:22.358Z,29.60
2018-05-04T11:37:50.536Z,29.90
2018-05-04T11:40:18.751Z,30.50
2018-05-04T11:42:46.939Z,31.10
2018-05-04T11:45:15.121Z,31.20
2018-05-04T11:47:43.302Z,31.60
2018-05-04T11:50:11.482Z,31.90
2018-05-04T11:52:39.656Z,32.10
2018-05-04T11:55:07.863Z,31.80
2018-05-04T11:57:36.047Z,31.60
2018-05-04T12:00:04.989Z,32.20
2018-05-04T12:02:33.266Z,32.10
2018-05-04T12:05:01.373Z,32.30
2018-05-04T12:07:29.558Z,31.70
2018-05-04T12:09:58.502Z,30.30
2018-05-04T12:12:26.717Z,30.30
2018-05-04T12:14:54.903Z,30.30
2018-05-04T12:17:23.883Z,31.00
2018-05-04T12:19:52.532Z,30.90
2018-05-04T12:22:20.717Z,31.90
2018-05-04T12:24:48.899Z,32.90
2018-05-04T12:27:17.069Z,33.40
2018-05-04T12:29:45.273Z,34.30
2018-05-04T12:32:14.320Z,34.70
2018-05-04T12:34:42.501Z,34.60
2018-05-04T12:37:10.773Z,34.80
2018-05-04T12:39:38.898Z,34.70
2018-05-04T12:42:07.848Z,33.80
2018-05-04T12:44:36.026Z,33.70
2018-05-04T12:47:04.288Z,33.60
2018-05-04T12:49:33.188Z,32.70
2018-05-04T12:52:01.381Z,32.60
2018-05-04T12:54:29.553Z,31.80
2018-05-04T12:56:57.745Z,30.90
2018-05-04T12:59:27.434Z,29.10
2018-05-04T13:01:55.616Z,29.10
2018-05-04T13:04:23.834Z,28.50
2018-05-04T13:06:52.768Z,27.80
2018-05-04T13:09:20.943Z,27.70
2018-05-04T13:11:49.140Z,27.30
2018-05-04T13:14:17.341Z,26.80
2018-05-04T13:16:46.289Z,26.40
2018-05-04T13:19:14.484Z,26.30
2018-05-04T13:21:42.684Z,26.30
2018-05-04T13:24:11.628Z,26.30
2018-05-04T13:26:39.804Z,26.30
2018-05-04T13:29:07.978Z,26.30
2018-05-04T13:31:36.153Z,26.60
2018-05-04T13:34:04.333Z,26.70
2018-05-04T13:36:32.525Z,26.80
2018-05-04T13:39:00.748Z,26.70
2018-05-04T13:41:29.688Z,26.90
2018-05-04T13:43:57.879Z,26.90
2018-05-04T13:46:26.840Z,28.30
2018-05-04T13:48:55.018Z,28.30
2018-05-04T13:51:23.295Z,29.90
2018-05-04T13:53:52.191Z,29.40
2018-05-04T13:56:20.413Z,29.30
2018-05-04T13:58:48.537Z,28.50
2018-05-04T14:01:16.751Z,27.60
2018-05-04T14:03:45.778Z,26.50
2018-05-04T14:06:13.916Z,26.40
2018-05-04T14:08:42.856Z,25.60
2018-05-04T14:11:11.184Z,25.50
2018-05-04T14:13:39.404Z,25.30
2018-05-04T14:16:07.581Z,25.20
2018-05-04T14:18:35.768Z,24.90
2018-05-04T14:21:03.942Z,24.70
2018-05-04T14:23:33.628Z,24.60
2018-05-04T14:26:01.802Z,24.50
2018-05-04T14:28:29.979Z,24.30
2018-05-04T14:30:58.171Z,24.20
2018-05-04T14:33:26.353Z,24.10
2018-05-04T14:35:54.546Z,24.00
2018-05-04T14:38:22.733Z,23.80
2018-05-04T14:40:50.909Z,23.80
2018-05-04T14:43:19.090Z,23.70
2018-05-04T14:45:48.042Z,23.70
2018-05-04T14:48:16.232Z,23.60
2018-05-04T14:50:44.431Z,23.70
2018-05-04T14:53:13.390Z,23.60
2018-05-04T14:55:41.595Z,23.50
2018-05-04T14:58:09.784Z,23.70
2018-05-04T15:00:38.766Z,23.70
2018-05-04T15:03:06.947Z,23.60
2018-05-04T15:05:35.893Z,23.70
2018-05-04T15:08:04.077Z,23.60
2018-05-04T15:10:32.263Z,23.70
2018-05-04T15:13:00.441Z,23.70
2018-05-04T15:15:28.624Z,23.60
2018-05-04T15:17:56.819Z,23.60
2018-05-04T15:20:25.788Z,23.40
2018-05-04T15:22:53.975Z,23.30
2018-05-04T15:25:22.158Z,23.30
2018-05-04T15:27:51.097Z,23.60
2018-05-04T15:30:19.293Z,23.50
2018-05-04T15:32:47.479Z,23.80
2018-05-04T15:35:15.672Z,24.00
2018-05-04T15:37:44.630Z,24.70
2018-05-04T15:40:12.813Z,24.70
2018-05-04T15:42:41.001Z,25.00
2018-05-04T15:45:09.168Z,25.30
2018-05-04T15:47:37.364Z,25.50
2018-05-04T15:50:11.817Z,26.00
2018-05-04T15:52:40.044Z,26.00
2018-05-04T15:55:08.236Z,26.00
2018-05-04T15:57:37.188Z,25.70
2018-05-04T16:00:05.367Z,25.70
2018-05-04T16:02:33.553Z,25.50
2018-05-04T16:05:01.731Z,25.30
2018-05-04T16:07:29.913Z,25.00
2018-05-04T16:09:58.098Z,24.70
2018-05-04T16:12:27.049Z,24.30
2018-05-04T16:14:55.230Z,24.20
2018-05-04T16:17:23.419Z,24.10
2018-05-04T16:19:51.597Z,23.90
2018-05-04T16:22:19.880Z,23.80
2018-05-04T16:24:48.034Z,23.60
2018-05-04T16:27:16.223Z,23.50
2018-05-04T16:29:44.418Z,23.50
2018-05-04T16:32:13.365Z,23.30
2018-05-04T16:34:41.650Z,23.30
2018-05-04T16:37:10.597Z,23.10
2018-05-04T16:39:39.578Z,23.00
2018-05-04T16:42:08.530Z,23.00
2018-05-04T16:44:36.713Z,22.90
2018-05-04T16:47:10.373Z,22.90
2018-05-04T16:49:38.563Z,22.80
2018-05-04T16:52:06.737Z,22.80
2018-05-04T16:54:34.911Z,22.70
2018-05-04T16:57:03.124Z,22.60
2018-05-04T16:59:31.331Z,22.50
2018-05-04T17:02:00.277Z,22.30
2018-05-04T17:04:28.655Z,22.20
2018-05-04T17:06:56.845Z,22.20
2018-05-04T17:09:25.042Z,22.10
2018-05-04T17:11:53.993Z,22.00
2018-05-04T17:14:22.181Z,22.00
2018-05-04T17:16:50.369Z,22.00
2018-05-04T17:19:18.647Z,22.00
2018-05-04T17:21:46.831Z,21.90
2018-05-04T17:24:15.783Z,21.90
2018-05-04T17:26:43.970Z,21.80
2018-05-04T17:29:12.148Z,21.80
2018-05-04T17:31:40.338Z,21.80
2018-05-04T17:34:08.522Z,21.80
2018-05-04T17:36:37.475Z,21.70
2018-05-04T17:39:05.697Z,21.60
2018-05-04T17:41:34.748Z,21.60
2018-05-04T17:44:02.923Z,21.60
2018-05-04T17:46:31.099Z,21.60
2018-05-04T17:48:59.291Z,21.50
2018-05-04T17:51:27.461Z,21.50
2018-05-04T17:53:55.640Z,21.50
2018-05-04T17:56:24.413Z,21.40
2018-05-04T17:58:52.628Z,21.40
2018-05-04T18:01:25.302Z,21.30
2018-05-04T18:03:56.481Z,21.30
2018-05-04T18:06:25.137Z,21.20
2018-05-04T18:08:57.524Z,21.20
2018-05-04T18:11:26.493Z,21.20
2018-05-04T18:13:57.969Z,21.20
2018-05-04T18:16:27.037Z,21.10
2018-05-04T18:18:59.542Z,21.10
2018-05-04T18:21:27.732Z,21.00
2018-05-04T18:23:56.093Z,21.10
2018-05-04T18:26:25.045Z,21.00
2018-05-04T18:28:56.889Z,21.00
2018-05-04T18:31:25.441Z,20.90
2018-05-04T18:33:57.324Z,20.90
2018-05-04T18:36:25.884Z,20.70
2018-05-04T18:38:58.644Z,20.60
2018-05-04T18:41:27.199Z,20.30
2018-05-04T18:43:59.579Z,19.80
2018-05-04T18:46:27.772Z,19.60
2018-05-04T18:49:01.953Z,19.60
2018-05-04T18:51:30.139Z,19.50
2018-05-04T18:53:58.758Z,19.60
2018-05-04T18:56:26.982Z,19.50
2018-05-04T18:58:55.961Z,19.40
2018-05-04T19:01:24.150Z,19.30
2018-05-04T19:03:52.345Z,19.30
2018-05-04T19:06:20.561Z,19.30
2018-05-04T19:08:49.524Z,19.30
2018-05-04T19:11:17.710Z,19.30
2018-05-04T19:13:46.657Z,19.30
2018-05-04T19:16:14.845Z,19.20
2018-05-04T19:18:43.025Z,19.30
2018-05-04T19:21:11.209Z,19.20
2018-05-04T19:23:40.157Z,19.00
2018-05-04T19:26:08.444Z,19.00
2018-05-04T19:28:36.622Z,19.00
2018-05-04T19:31:04.804Z,19.00
2018-05-04T19:33:32.986Z,19.00
2018-05-04T19:36:01.162Z,19.00
2018-05-04T19:38:29.577Z,18.90
2018-05-04T19:40:58.541Z,18.90
2018-05-04T19:43:26.718Z,18.90
2018-05-04T19:45:54.910Z,18.80
2018-05-04T19:48:23.365Z,18.80
2018-05-04T19:50:51.536Z,18.80
2018-05-04T19:53:19.723Z,18.80
2018-05-04T19:55:47.896Z,18.80
2018-05-04T19:58:16.069Z,18.90
2018-05-04T20:00:44.259Z,18.90
2018-05-04T20:03:12.448Z,18.80
2018-05-04T20:05:41.396Z,18.80
2018-05-04T20:08:09.574Z,18.70
2018-05-04T20:10:37.750Z,18.70
2018-05-04T20:13:05.921Z,18.70
2018-05-04T20:15:34.093Z,18.60
2018-05-04T20:18:02.264Z,18.60
2018-05-04T20:20:30.445Z,18.60
2018-05-04T20:22:58.621Z,18.60
2018-05-04T20:25:26.789Z,18.60
2018-05-04T20:27:54.966Z,18.60
2018-05-04T20:30:23.170Z,18.60
2018-05-04T20:32:52.117Z,18.60
2018-05-04T20:35:20.298Z,18.50
2018-05-04T20:37:48.497Z,18.60
2018-05-04T20:40:16.685Z,18.60
2018-05-04T20:42:44.875Z,18.60
2018-05-04T20:45:13.822Z,18.50
2018-05-04T20:47:42.009Z,18.50
2018-05-04T20:50:10.220Z,18.60
2018-05-04T20:52:39.164Z,18.60
2018-05-04T20:55:07.348Z,18.50
2018-05-04T20:57:35.528Z,18.50
2018-05-04T21:00:03.706Z,18.50
2018-05-04T21:02:31.877Z,18.50
2018-05-04T21:05:00.101Z,18.30
2018-05-04T21:07:29.049Z,17.80
2018-05-04T21:09:57.236Z,17.80
2018-05-04T21:12:25.410Z,17.70
2018-05-04T21:14:53.590Z,17.60
2018-05-04T21:17:21.757Z,17.60
2018-05-04T21:19:49.939Z,17.50
2018-05-04T21:22:18.119Z,17.50
2018-05-04T21:24:46.289Z,17.40
2018-05-04T21:27:14.461Z,17.40
2018-05-04T21:29:42.676Z,17.20
2018-05-04T21:32:10.845Z,17.10
2018-05-04T21:34:39.014Z,17.10
2018-05-04T21:37:07.945Z,17.00
2018-05-04T21:39:36.225Z,16.90
2018-05-04T21:42:04.398Z,17.10
2018-05-04T21:44:32.591Z,17.00
2018-05-04T21:47:00.762Z,16.90
2018-05-04T21:49:28.928Z,16.70
2018-05-04T21:51:57.210Z,16.60
2018-05-04T21:54:26.101Z,16.80
2018-05-04T21:56:55.276Z,16.70
2018-05-04T21:59:23.456Z,16.80
2018-05-04T22:01:51.626Z,16.80
2018-05-04T22:04:19.823Z,16.80
2018-05-04T22:06:48.014Z,16.80
2018-05-04T22:09:16.190Z,16.80
2018-05-04T22:11:44.409Z,16.90
2018-05-04T22:14:12.578Z,16.90
2018-05-04T22:16:40.744Z,16.90
2018-05-04T22:19:09.710Z,16.80
2018-05-04T22:21:37.896Z,16.80
2018-05-04T22:24:06.842Z,16.80
2018-05-04T22:26:35.095Z,16.80
2018-05-04T22:29:04.006Z,16.80
2018-05-04T22:31:32.199Z,16.70
2018-05-04T22:34:00.384Z,16.70
2018-05-04T22:36:28.561Z,16.70
2018-05-04T22:38:56.748Z,16.70
2018-05-04T22:41:24.929Z,16.70
2018-05-04T22:43:53.873Z,16.70
2018-05-04T22:46:22.035Z,16.70
2018-05-04T22:48:50.200Z,16.70
2018-05-04T22:51:18.361Z,16.80
2018-05-04T22:53:47.298Z,16.60
2018-05-04T22:56:15.477Z,16.60
2018-05-04T22:58:43.657Z,16.60
2018-05-04T23:01:11.829Z,16.60
2018-05-04T23:03:39.996Z,16.60
2018-05-04T23:06:08.189Z,16.50
2018-05-04T23:08:36.365Z,16.40
2018-05-04T23:11:04.565Z,16.40
2018-05-04T23:13:33.513Z,16.40
2018-05-04T23:16:01.678Z,16.40
2018-05-04T23:18:29.856Z,16.50
2018-05-04T23:20:58.038Z,16.50
2018-05-04T23:23:26.549Z,16.50
2018-05-04T23:25:54.729Z,16.50
2018-05-04T23:28:23.673Z,16.40
2018-05-04T23:30:51.843Z,16.40
2018-05-04T23:33:20.014Z,16.40
2018-05-04T23:35:48.173Z,16.40
2018-05-04T23:38:16.353Z,16.30
2018-05-04T23:40:44.515Z,16.30
2018-05-04T23:43:13.443Z,16.30
2018-05-04T23:45:41.616Z,16.20
2018-05-04T23:48:09.786Z,16.30
2018-05-04T23:50:37.957Z,16.20
2018-05-04T23:53:06.182Z,16.20
2018-05-04T23:55:34.354Z,16.30
2018-05-04T23:58:03.304Z,16.30
